WetterOnline ( http://www.wetteronline.de )

Wetter aktuell Bad Fallingbostel

Aktuelles Wetter: Soltau (76m)

6-stündlich | Neueste Meldungen
Ortszeit Temperatur Wetter
Sa, 18.08. 8:00 11.8° C wolkenlos
Sa, 18.08. 2:00 10.1° C fast wolkenlos
Fr, 17.08. 20:00 19.6° C leicht bewölkt
Fr, 17.08. 14:00 18.3° C Sprühregen
Fr, 17.08. 8:00 16.4° C wolkig
Fr, 17.08. 2:00 17.0° C wolkig
Do, 16.08. 20:00 27.0° C leicht bewölkt
Do, 16.08. 14:00 26.9° C wolkenlos
Ortszeit Temperatur Wetter
Sa, 18.08. 12:30 21.0° C wolkig
Sa, 18.08. 12:20 21.0° C wolkig
Sa, 18.08. 12:10 22.0° C wolkig
Sa, 18.08. 12:00 21.3° C wolkig
Sa, 18.08. 11:50 21.3° C wolkig
Sa, 18.08. 11:40 21.0° C leicht bewölkt
Sa, 18.08. 11:30 20.9° C wolkig
Sa, 18.08. 11:00 20.3° C wolkenlos
Sa, 18.08. 10:30 20.1° C fast wolkenlos
Sa, 18.08. 10:00 19.4° C fast wolkenlos
Sa, 18.08. 9:30 17.6° C fast wolkenlos
Ortszeit Relative Feuchte Sichtweite
Sa, 18.08. 8:00 91% 17 km
Sa, 18.08. 2:00 97% 12 km
Fr, 17.08. 20:00 64% 55 km
Fr, 17.08. 14:00 84% 21 km
Fr, 17.08. 8:00 93% 5.0 km
Fr, 17.08. 2:00 85% 14 km
Do, 16.08. 20:00 40% 65 km
Do, 16.08. 14:00 41% 24 km
Ortszeit Relative Feuchte Sichtweite
Sa, 18.08. 12:30 51% 40 km
Sa, 18.08. 12:20 51% -
Sa, 18.08. 12:10 48% -
Sa, 18.08. 12:00 52% 35 km
Sa, 18.08. 11:50 52% -
Sa, 18.08. 11:40 51% -
Sa, 18.08. 11:30 54% 30 km
Sa, 18.08. 11:00 59% 29 km
Sa, 18.08. 10:30 60% 35 km
Sa, 18.08. 10:00 64% 29 km
Sa, 18.08. 9:30 70% 28 km
Ortszeit Niederschlagsmenge Niederschlagsart
Sa, 18.08. 8:00 0.0 l/m2 in 12 Std. -
Sa, 18.08. 2:00 0.0 l/m2 in 6 Std. -
Fr, 17.08. 20:00 0.4 l/m2 in 12 Std. Regen
Fr, 17.08. 14:00 0.4 l/m2 in 6 Std. Regen
Fr, 17.08. 8:00 0.0 l/m2 in 12 Std. -
Fr, 17.08. 2:00 0.0 l/m2 in 6 Std. -
Do, 16.08. 20:00 0.0 l/m2 in 12 Std. -
Do, 16.08. 14:00 0.0 l/m2 in 6 Std. -
Ortszeit Niederschlagsmenge Niederschlagsart
Sa, 18.08. 12:30 0.0 l/m2 in 1 Std. -
Sa, 18.08. 12:20 keine Meldung -
Sa, 18.08. 12:10 keine Meldung -
Sa, 18.08. 12:00 0.0 l/m2 in 1 Std. -
Sa, 18.08. 11:50 keine Meldung -
Sa, 18.08. 11:40 keine Meldung -
Sa, 18.08. 11:30 0.0 l/m2 in 1 Std. -
Sa, 18.08. 11:00 0.0 l/m2 in 1 Std. -
Sa, 18.08. 10:30 0.0 l/m2 in 1 Std. -
Sa, 18.08. 10:00 0.0 l/m2 in 1 Std. -
Sa, 18.08. 9:30 0.0 l/m2 in 1 Std. -
Ortszeit Stärke Spitze Richtung
km/h Bft. km/h Grad Sektor
Sa, 18.08. 8:00 0 0 4 - -
Sa, 18.08. 2:00 4 1 11 280° W
Fr, 17.08. 20:00 7 2 29 330° NW
Fr, 17.08. 14:00 13 3 28 310° NW
Fr, 17.08. 8:00 7 2 11 310° NW
Fr, 17.08. 2:00 4 1 25 340° N
Do, 16.08. 20:00 7 2 32 260° W
Do, 16.08. 14:00 17 3 35 170° S
Ortszeit Stärke Spitze Richtung
km/h Bft. km/h Grad Sektor
Sa, 18.08. 12:30 18 3 29 240° SW
Sa, 18.08. 12:20 18 3 - 240° SW
Sa, 18.08. 12:10 13 3 - 240° SW
Sa, 18.08. 12:00 15 3 35 210° SW
Sa, 18.08. 11:50 15 3 - 210° SW
Sa, 18.08. 11:40 14 3 - 230° SW
Sa, 18.08. 11:30 15 3 28 250° W
Sa, 18.08. 11:00 11 2 24 250° W
Sa, 18.08. 10:30 13 3 24 240° SW
Sa, 18.08. 10:00 11 2 19 180° S
Sa, 18.08. 9:30 9 2 13 200° S
Ortszeit Untergrenze Bedeckung Gattung
total tief tief mittel hoch
Sa, 18.08. 8:00 - 0/8 0/8 - - -
Sa, 18.08. 2:00 2400 m 1/8 1/8 - - -
Fr, 17.08. 20:00 1500 m 4/8 4/8 - - -
Fr, 17.08. 14:00 720 m 8/8 8/8 - - -
Fr, 17.08. 8:00 2100 m 7/8 4/8 - - -
Fr, 17.08. 2:00 10500 m 8/8 0/8 - - -
Do, 16.08. 20:00 9000 m 8/8 0/8 - - -
Do, 16.08. 14:00 - 0/8 0/8 - - -
Ortszeit Bedeckungsgrad in Achtel und Wolkenuntergrenze
Sa, 18.08. 12:30 1(1230m) 7(9000m)
Sa, 18.08. 12:20 1(1230m) 7(9000m)
Sa, 18.08. 12:10 1(1230m) 8(9000m)
Sa, 18.08. 12:00 7(10500m) 7(10500m)
Sa, 18.08. 11:50 7(10500m) 7(10500m)
Sa, 18.08. 11:40 6(10500m) 6(10500m)
Sa, 18.08. 11:30 1(1140m) 7(10500m)
Sa, 18.08. 11:00 2(10500m)
Sa, 18.08. 10:30 2(10500m)
Sa, 18.08. 10:00 2(10500m)
Sa, 18.08. 9:30 1(1500m)
Ortszeit Luftdruck NN (hPa) Tendenz (hPa in 3 Std.)
Sa, 18.08. 8:00 1022 + 0,3
Sa, 18.08. 2:00 1021 + 0,6
Fr, 17.08. 20:00 1018 + 0,2
Fr, 17.08. 14:00 1018 + 0,6
Fr, 17.08. 8:00 1016 + 1,4
Fr, 17.08. 2:00 1015 + 0,5
Do, 16.08. 20:00 1013 - 0,4
Do, 16.08. 14:00 1015 - 1,5
Ortszeit Luftdruck NN (hPa) Tendenz (hPa in 3 Std.)
Sa, 18.08. 12:30 1022 - 0,1
Sa, 18.08. 12:20 1022 keine Meldung
Sa, 18.08. 12:10 1021 keine Meldung
Sa, 18.08. 12:00 1022 - 0,1
Sa, 18.08. 11:50 1022 keine Meldung
Sa, 18.08. 11:40 1022 keine Meldung
Sa, 18.08. 11:30 1022 + 0,1
Sa, 18.08. 11:00 1022 + 0,2
Sa, 18.08. 10:30 1022 + 0,1
Sa, 18.08. 10:00 1022 + 0,2
Sa, 18.08. 9:30 1022 + 0,3
Ortszeit Schneehöhe (cm)
Sa, 18.08. 8:00 -
Sa, 18.08. 2:00 -
Fr, 17.08. 20:00 -
Fr, 17.08. 14:00 -
Fr, 17.08. 8:00 -
Fr, 17.08. 2:00 -
Do, 16.08. 20:00 -
Do, 16.08. 14:00 -
Ortszeit Schneehöhe (cm)
Sa, 18.08. 12:30 -
Sa, 18.08. 12:20 -
Sa, 18.08. 12:10 -
Sa, 18.08. 12:00 -
Sa, 18.08. 11:50 -
Sa, 18.08. 11:40 -
Sa, 18.08. 11:30 -
Sa, 18.08. 11:00 -
Sa, 18.08. 10:30 -
Sa, 18.08. 10:00 -
Sa, 18.08. 9:30 -
Link zu dieser Seite / Seite empfehlen

Das Wetter in ...